createdAt,value
2022-10-11T00:01:35.097Z,102134.94
2022-10-11T00:04:01.618Z,102130.69
2022-10-11T00:06:28.184Z,102140.06
2022-10-11T00:08:54.651Z,102137.75
2022-10-11T00:11:21.122Z,102140.47
2022-10-11T00:13:47.584Z,102145.94
2022-10-11T00:16:15.337Z,102145.16
2022-10-11T00:18:41.935Z,102140.63
2022-10-11T00:21:12.094Z,102154.22
2022-10-11T00:23:39.164Z,102153.03
2022-10-11T00:26:09.042Z,102156.94
2022-10-11T00:28:37.000Z,102165.13
2022-10-11T00:31:10.165Z,102164.75
2022-10-11T00:33:37.044Z,102159.31
2022-10-11T00:36:04.598Z,102158.25
2022-10-11T00:38:32.065Z,102165.66
2022-10-11T00:40:59.664Z,102164.84
2022-10-11T00:43:29.283Z,102164.13
2022-10-11T00:45:55.658Z,102166.09
2022-10-11T00:48:27.619Z,102166.50
2022-10-11T00:50:57.284Z,102168.47
2022-10-11T00:53:24.388Z,102163.03
2022-10-11T00:56:00.543Z,102173.16
2022-10-11T00:58:27.134Z,102183.28
2022-10-11T01:00:54.254Z,102182.94
2022-10-11T01:03:23.709Z,102190.72
2022-10-11T01:05:50.398Z,102189.16
2022-10-11T01:08:16.949Z,102187.63
2022-10-11T01:10:43.396Z,102190.06
2022-10-11T01:13:22.103Z,102188.50
2022-10-11T01:16:00.127Z,102200.19
2022-10-11T01:18:45.346Z,102199.38
2022-10-11T01:21:25.560Z,102201.34
2022-10-11T01:24:14.726Z,102204.50
2022-10-11T01:26:46.867Z,102204.94
2022-10-11T01:29:49.399Z,102215.84
2022-10-11T01:32:29.307Z,102214.63
2022-10-11T01:35:06.520Z,102227.13
2022-10-11T01:37:37.192Z,102222.88
2022-10-11T01:40:28.188Z,102222.16
2022-10-11T01:42:56.907Z,102221.38
2022-10-11T01:45:23.545Z,102222.25
2022-10-11T01:48:02.428Z,102222.25
2022-10-11T01:50:44.271Z,102231.13
2022-10-11T01:53:30.946Z,102231.13
2022-10-11T01:56:09.585Z,102219.94
2022-10-11T01:58:43.043Z,102223.44
2022-10-11T02:01:31.061Z,102234.75
2022-10-11T02:04:10.859Z,102228.53
2022-10-11T02:06:51.228Z,102224.28
2022-10-11T02:09:42.639Z,102232.47
2022-10-11T02:12:16.331Z,102227.88
2022-10-11T02:14:47.027Z,102233.31
2022-10-11T02:17:25.187Z,102236.78
2022-10-11T02:19:54.490Z,102237.25
2022-10-11T02:22:26.266Z,102232.53
2022-10-11T02:24:56.081Z,102232.53
2022-10-11T02:27:26.624Z,102241.13
2022-10-11T02:29:55.381Z,102251.25
2022-10-11T02:32:24.215Z,102248.53
2022-10-11T02:34:56.846Z,102250.50
2022-10-11T02:37:32.580Z,102255.19
2022-10-11T02:40:02.094Z,102261.38
2022-10-11T02:42:33.962Z,102257.13
2022-10-11T02:45:37.926Z,102261.06
2022-10-11T02:48:06.070Z,102262.66
2022-10-11T02:50:32.757Z,102261.47
2022-10-11T02:52:59.493Z,102261.47
2022-10-11T02:55:25.959Z,102268.56
2022-10-11T02:57:52.887Z,102264.31
2022-10-11T03:00:19.448Z,102265.84
2022-10-11T03:02:45.861Z,102268.56
2022-10-11T03:05:12.332Z,102271.69
2022-10-11T03:07:38.817Z,102266.25
2022-10-11T03:10:06.727Z,102274.81
2022-10-11T03:12:33.647Z,102272.09
2022-10-11T03:15:01.824Z,102281.03
2022-10-11T03:17:36.889Z,102289.19
2022-10-11T03:20:06.273Z,102286.16
2022-10-11T03:22:32.697Z,102297.81
2022-10-11T03:25:03.579Z,102302.13
2022-10-11T03:27:31.433Z,102305.63
2022-10-11T03:29:57.942Z,102300.19
2022-10-11T03:32:24.797Z,102312.25
2022-10-11T03:34:51.301Z,102306.81
2022-10-11T03:37:18.245Z,102309.22
2022-10-11T03:39:45.732Z,102316.97
2022-10-11T03:42:13.074Z,102318.16
2022-10-11T03:44:39.648Z,102321.63
2022-10-11T03:47:06.085Z,102325.56
2022-10-11T03:49:32.526Z,102323.25
2022-10-11T03:51:59.170Z,102330.66
2022-10-11T03:54:25.992Z,102333.38
2022-10-11T03:56:52.715Z,102329.88
2022-10-11T03:59:19.090Z,102331.06
2022-10-11T04:01:45.578Z,102331.50
2022-10-11T04:04:12.038Z,102333.03
2022-10-11T04:06:38.440Z,102340.44
2022-10-11T04:09:05.055Z,102336.59
2022-10-11T04:11:31.489Z,102341.28
2022-10-11T04:13:57.951Z,102347.47
2022-10-11T04:16:24.476Z,102352.94
2022-10-11T04:18:50.887Z,102358.78
2022-10-11T04:21:17.920Z,102361.50
2022-10-11T04:23:44.399Z,102367.72
2022-10-11T04:26:10.816Z,102381.75
2022-10-11T04:28:37.337Z,102381.75
2022-10-11T04:31:07.941Z,102379.78
2022-10-11T04:36:00.819Z,102387.97
2022-10-11T04:38:27.291Z,102391.91
2022-10-11T04:40:53.729Z,102391.91
2022-10-11T04:43:20.298Z,102390.34
2022-10-11T04:45:46.797Z,102405.56
2022-10-11T04:48:14.047Z,102404.06
2022-10-11T04:50:40.517Z,102409.50
2022-10-11T04:53:07.069Z,102415.31
2022-10-11T04:55:33.490Z,102416.09
2022-10-11T04:58:00.034Z,102408.72
2022-10-11T05:00:27.468Z,102420.38
2022-10-11T05:02:54.123Z,102412.59
2022-10-11T05:05:20.554Z,102425.44
2022-10-11T05:07:46.982Z,102425.88
2022-10-11T05:10:13.377Z,102423.91
2022-10-11T05:12:39.821Z,102425.44
2022-10-11T05:15:07.093Z,102422.41
2022-10-11T05:17:33.739Z,102429.81
2022-10-11T05:20:00.181Z,102427.06
2022-10-11T05:22:26.785Z,102433.72
2022-10-11T05:24:53.194Z,102445.75
2022-10-11T05:27:19.609Z,102439.16
2022-10-11T05:29:46.081Z,102443.03
2022-10-11T05:32:12.618Z,102441.53
2022-10-11T05:34:39.057Z,102443.91
2022-10-11T05:37:05.671Z,102443.53
2022-10-11T05:39:32.421Z,102447.78
2022-10-11T05:41:58.898Z,102460.56
2022-10-11T05:44:25.464Z,102458.63
2022-10-11T05:46:51.888Z,102461.75
2022-10-11T05:49:18.319Z,102464.78
2022-10-11T05:51:44.737Z,102467.50
2022-10-11T05:54:11.179Z,102475.63
2022-10-11T05:56:37.733Z,102477.25
2022-10-11T05:59:04.798Z,102484.28
2022-10-11T06:01:31.245Z,102480.31
2022-10-11T06:03:57.747Z,102483.78
2022-10-11T06:06:24.194Z,102482.59
2022-10-11T06:08:50.848Z,102490.00
2022-10-11T06:11:20.729Z,102499.69
2022-10-11T06:13:47.282Z,102496.97
2022-10-11T06:16:13.788Z,102491.91
2022-10-11T06:18:40.780Z,102498.09
2022-10-11T06:21:07.448Z,102502.34
2022-10-11T06:26:07.055Z,102512.81
2022-10-11T06:31:21.948Z,102514.69
2022-10-11T06:33:48.464Z,102520.91
2022-10-11T06:36:15.580Z,102517.78
2022-10-11T06:38:45.025Z,102518.13
2022-10-11T06:41:20.672Z,102535.97
2022-10-11T06:43:49.375Z,102537.50
2022-10-11T06:46:16.802Z,102540.59
2022-10-11T06:48:44.474Z,102534.72
2022-10-11T06:51:15.785Z,102544.78
2022-10-11T06:53:42.650Z,102533.03
2022-10-11T06:56:11.805Z,102538.47
2022-10-11T06:58:39.334Z,102534.91
2022-10-11T07:01:12.194Z,102543.84
2022-10-11T07:03:39.138Z,102544.59
2022-10-11T07:06:09.915Z,102547.72
2022-10-11T07:08:37.566Z,102550.75
2022-10-11T07:11:06.724Z,102558.84
2022-10-11T07:13:33.157Z,102546.84
2022-10-11T07:16:04.672Z,102553.34
2022-10-11T07:18:32.030Z,102557.53
2022-10-11T07:21:02.056Z,102562.56
2022-10-11T07:23:28.496Z,102563.66
2022-10-11T07:25:55.250Z,102558.88
2022-10-11T07:28:22.640Z,102555.69
2022-10-11T07:30:49.478Z,102563.75
2022-10-11T07:33:16.184Z,102567.59
2022-10-11T07:35:45.993Z,102564.13
2022-10-11T07:38:14.964Z,102572.47
2022-10-11T07:40:43.733Z,102568.50
2022-10-11T07:43:11.514Z,102580.03
2022-10-11T07:45:42.103Z,102583.06
2022-10-11T07:48:09.029Z,102585.28
2022-10-11T07:50:35.662Z,102574.59
2022-10-11T07:53:02.771Z,102588.06
2022-10-11T07:55:30.056Z,102584.84
2022-10-11T07:57:57.683Z,102592.53
2022-10-11T08:00:24.269Z,102590.97
2022-10-11T08:02:50.779Z,102597.44
2022-10-11T08:05:17.325Z,102596.56
2022-10-11T08:07:43.809Z,102594.22
2022-10-11T08:10:10.631Z,102597.94
2022-10-11T08:12:37.206Z,102597.16
2022-10-11T08:15:03.886Z,102598.31
2022-10-11T08:17:30.431Z,102602.03
2022-10-11T08:19:58.076Z,102597.34
2022-10-11T08:22:24.542Z,102597.25
2022-10-11T08:24:51.133Z,102596.38
2022-10-11T08:27:17.619Z,102600.56
2022-10-11T08:29:44.041Z,102602.44
2022-10-11T08:32:12.218Z,102604.75
2022-10-11T08:34:38.781Z,102602.34
2022-10-11T08:37:05.423Z,102605.75
2022-10-11T08:39:32.060Z,102600.31
2022-10-11T08:42:20.342Z,102608.38
2022-10-11T08:45:10.105Z,102606.66
2022-10-11T08:47:41.039Z,102608.66
2022-10-11T08:50:15.416Z,102601.88
2022-10-11T08:52:53.642Z,102601.75
2022-10-11T08:55:29.121Z,102606.41
2022-10-11T08:57:56.608Z,102605.94
2022-10-11T09:00:24.133Z,102604.31
2022-10-11T09:03:14.451Z,102613.19
2022-10-11T09:05:58.476Z,102616.94
2022-10-11T09:08:46.812Z,102616.06
2022-10-11T09:12:08.099Z,102623.38
2022-10-11T09:14:53.020Z,102617.81
2022-10-11T09:17:51.541Z,102625.25
2022-10-11T09:20:49.505Z,102632.16
2022-10-11T09:23:22.182Z,102633.22
2022-10-11T09:25:55.729Z,102631.59
2022-10-11T09:28:35.256Z,102633.50
2022-10-11T09:31:01.737Z,102633.38
2022-10-11T09:33:36.864Z,102628.53
2022-10-11T09:36:16.479Z,102634.38
2022-10-11T09:39:06.494Z,102628.78
2022-10-11T09:42:05.489Z,102629.78
2022-10-11T09:44:46.926Z,102628.13
2022-10-11T09:47:26.000Z,102632.75
2022-10-11T09:50:16.658Z,102642.06
2022-10-11T09:52:55.039Z,102637.66
2022-10-11T09:55:30.411Z,102634.84
2022-10-11T09:57:56.918Z,102635.50
2022-10-11T10:00:30.066Z,102635.81
2022-10-11T10:03:05.307Z,102637.69
2022-10-11T10:05:35.257Z,102637.59
2022-10-11T10:08:20.291Z,102638.34
2022-10-11T10:10:58.487Z,102639.88
2022-10-11T10:13:40.737Z,102639.78
2022-10-11T10:16:11.669Z,102646.22
2022-10-11T10:18:48.809Z,102645.00
2022-10-11T10:21:16.160Z,102643.81
2022-10-11T10:23:43.378Z,102637.78
2022-10-11T10:26:22.726Z,102639.19
2022-10-11T10:29:09.704Z,102642.28
2022-10-11T10:31:55.302Z,102643.69
2022-10-11T10:34:35.254Z,102642.78
2022-10-11T10:37:09.499Z,102653.63
2022-10-11T10:39:47.128Z,102662.19
2022-10-11T10:42:18.302Z,102658.56
2022-10-11T10:44:54.595Z,102656.91
2022-10-11T10:48:01.381Z,102665.00
2022-10-11T10:50:50.087Z,102671.56
2022-10-11T10:53:39.547Z,102668.72
2022-10-11T10:56:27.559Z,102672.53
2022-10-11T10:59:11.344Z,102670.13
2022-10-11T11:02:28.093Z,102673.94
2022-10-11T11:05:26.642Z,102665.63
2022-10-11T11:08:16.527Z,102678.91
2022-10-11T11:10:57.602Z,102661.56
2022-10-11T11:13:36.221Z,102662.66
2022-10-11T11:16:36.799Z,102664.50
2022-10-11T11:19:17.507Z,102666.34
2022-10-11T11:22:01.994Z,102671.38
2022-10-11T11:24:54.363Z,102677.53
2022-10-11T11:27:44.228Z,102668.88
2022-10-11T11:30:21.478Z,102669.50
2022-10-11T11:33:13.422Z,102666.34
2022-10-11T11:35:48.441Z,102675.63
2022-10-11T11:38:40.953Z,102668.94
2022-10-11T11:41:26.238Z,102665.00
2022-10-11T11:43:58.444Z,102659.84
2022-10-11T11:46:30.338Z,102665.22
2022-10-11T11:49:00.371Z,102658.97
2022-10-11T11:51:35.279Z,102660.50
2022-10-11T11:54:20.334Z,102657.78
2022-10-11T11:56:55.674Z,102663.97
2022-10-11T11:59:43.423Z,102662.78
2022-10-11T12:02:29.015Z,102658.97
2022-10-11T12:04:56.309Z,102648.16
2022-10-11T12:07:24.893Z,102656.06
2022-10-11T12:10:16.702Z,102656.16
2022-10-11T12:12:43.385Z,102658.56
2022-10-11T12:15:09.941Z,102661.22
2022-10-11T12:17:58.824Z,102649.19
2022-10-11T12:20:32.067Z,102661.75
2022-10-11T12:23:44.511Z,102654.91
2022-10-11T12:26:29.120Z,102658.84
2022-10-11T12:29:20.141Z,102656.34
2022-10-11T12:32:13.757Z,102656.47
2022-10-11T12:34:43.185Z,102656.91
2022-10-11T12:37:18.800Z,102660.84
2022-10-11T12:39:51.631Z,102661.75
2022-10-11T12:42:25.988Z,102664.00
2022-10-11T12:45:10.817Z,102663.72
2022-10-11T12:48:12.747Z,102660.19
2022-10-11T12:51:13.251Z,102663.34
2022-10-11T12:54:25.014Z,102657.88
2022-10-11T12:57:16.125Z,102650.13
2022-10-11T12:59:46.519Z,102655.25
2022-10-11T13:02:37.387Z,102653.09
2022-10-11T13:05:16.563Z,102653.09
2022-10-11T13:07:43.343Z,102646.09
2022-10-11T13:10:15.758Z,102645.78
2022-10-11T13:12:44.805Z,102657.13
2022-10-11T13:15:18.114Z,102653.72
2022-10-11T13:17:44.785Z,102646.31
2022-10-11T13:20:19.971Z,102652.97
2022-10-11T13:22:50.314Z,102646.44
2022-10-11T13:25:37.582Z,102643.38
2022-10-11T13:28:08.860Z,102645.78
2022-10-11T13:30:36.916Z,102649.38
2022-10-11T13:33:11.095Z,102643.59
2022-10-11T13:35:38.605Z,102647.19
2022-10-11T13:38:09.055Z,102641.41
2022-10-11T13:40:35.915Z,102647.75
2022-10-11T13:43:05.246Z,102652.91
2022-10-11T13:45:32.724Z,102648.31
2022-10-11T13:47:59.386Z,102651.88
2022-10-11T13:50:35.170Z,102651.66
2022-10-11T13:53:21.844Z,102646.63
2022-10-11T13:55:54.463Z,102645.22
2022-10-11T13:58:30.057Z,102638.66
2022-10-11T14:01:03.029Z,102650.81
2022-10-11T14:03:41.174Z,102648.59
2022-10-11T14:06:13.553Z,102649.91
2022-10-11T14:08:44.549Z,102645.66
2022-10-11T14:11:13.059Z,102643.44
2022-10-11T14:13:47.028Z,102643.88
2022-10-11T14:16:34.899Z,102648.69
2022-10-11T14:19:01.285Z,102645.59
2022-10-11T14:21:32.146Z,102642.97
2022-10-11T14:24:07.490Z,102648.13
2022-10-11T14:26:37.021Z,102643.53
2022-10-11T14:29:31.259Z,102645.16
2022-10-11T14:32:08.144Z,102645.59
2022-10-11T14:34:34.760Z,102643.28
2022-10-11T14:37:01.276Z,102648.84
2022-10-11T14:39:30.725Z,102639.56
2022-10-11T14:41:57.230Z,102646.66
2022-10-11T14:44:24.498Z,102646.31
2022-10-11T14:46:54.526Z,102650.28
2022-10-11T14:49:25.174Z,102641.72
2022-10-11T14:51:53.179Z,102646.41
2022-10-11T14:54:24.977Z,102646.50
2022-10-11T14:56:53.717Z,102654.81
2022-10-11T14:59:23.501Z,102650.50
2022-10-11T15:01:51.957Z,102648.66
2022-10-11T15:04:19.962Z,102645.16
2022-10-11T15:06:46.431Z,102651.47
2022-10-11T15:09:12.901Z,102653.09
2022-10-11T15:11:39.860Z,102651.19
2022-10-11T15:14:06.769Z,102661.72
2022-10-11T15:16:33.959Z,102660.22
2022-10-11T15:19:00.523Z,102656.81
2022-10-11T15:21:28.546Z,102654.50
2022-10-11T15:23:55.739Z,102654.16
2022-10-11T15:26:27.640Z,102651.44
2022-10-11T15:28:57.581Z,102651.53
2022-10-11T15:31:24.311Z,102643.34
2022-10-11T15:33:51.398Z,102644.22
2022-10-11T15:36:21.141Z,102651.63
2022-10-11T15:38:49.041Z,102650.50
2022-10-11T15:41:17.577Z,102654.09
2022-10-11T15:43:45.263Z,102652.16
2022-10-11T15:46:19.773Z,102654.53
2022-10-11T15:48:47.391Z,102659.66
2022-10-11T15:51:15.387Z,102655.38
2022-10-11T15:53:42.149Z,102657.75
2022-10-11T15:56:15.191Z,102650.78
2022-10-11T15:58:41.980Z,102667.59
2022-10-11T16:01:19.835Z,102663.31
2022-10-11T16:03:48.477Z,102665.25
2022-10-11T16:06:15.877Z,102666.81
2022-10-11T16:08:42.375Z,102672.75
2022-10-11T16:11:10.366Z,102664.25
2022-10-11T16:13:36.854Z,102664.25
2022-10-11T16:16:06.158Z,102663.91
2022-10-11T16:18:35.533Z,102672.53
2022-10-11T16:21:06.285Z,102669.81
2022-10-11T16:23:33.116Z,102676.88
2022-10-11T16:26:01.681Z,102678.81
2022-10-11T16:28:29.263Z,102678.81
2022-10-11T16:30:55.971Z,102671.84
2022-10-11T16:33:22.937Z,102680.13
2022-10-11T16:35:49.382Z,102685.13
2022-10-11T16:38:15.842Z,102686.34
2022-10-11T16:40:43.190Z,102680.22
2022-10-11T16:43:10.048Z,102680.53
2022-10-11T16:45:36.613Z,102679.44
2022-10-11T16:48:03.823Z,102681.41
2022-10-11T16:50:30.247Z,102679.84
2022-10-11T16:52:56.746Z,102691.63
2022-10-11T16:55:23.455Z,102689.66
2022-10-11T16:57:49.888Z,102683.44
2022-10-11T17:00:16.801Z,102682.31
2022-10-11T17:02:43.254Z,102671.06
2022-10-11T17:05:09.649Z,102680.47
2022-10-11T17:07:36.179Z,102682.75
2022-10-11T17:10:02.950Z,102685.47
2022-10-11T17:12:29.722Z,102685.13
2022-10-11T17:14:56.457Z,102685.13
2022-10-11T17:17:22.935Z,102692.19
2022-10-11T17:19:49.715Z,102685.97
2022-10-11T17:22:19.242Z,102684.78
2022-10-11T17:24:46.161Z,102690.69
2022-10-11T17:27:12.781Z,102691.06
2022-10-11T17:29:39.493Z,102688.34
2022-10-11T17:32:06.466Z,102690.75
2022-10-11T17:34:33.080Z,102684.09
2022-10-11T17:36:59.498Z,102692.72
2022-10-11T17:39:25.960Z,102688.03
2022-10-11T17:41:53.911Z,102685.72
2022-10-11T17:44:21.737Z,102695.06
2022-10-11T17:46:48.701Z,102690.38
2022-10-11T17:49:15.812Z,102690.78
2022-10-11T17:51:43.146Z,102689.28
2022-10-11T17:54:12.686Z,102687.34
2022-10-11T17:56:41.658Z,102686.19
2022-10-11T17:59:14.390Z,102688.16
2022-10-11T18:01:40.930Z,102692.84
2022-10-11T18:04:07.737Z,102685.09
2022-10-11T18:06:39.033Z,102682.69
2022-10-11T18:09:05.966Z,102680.84
2022-10-11T18:11:32.937Z,102678.53
2022-10-11T18:13:59.655Z,102671.88
2022-10-11T18:16:28.473Z,102677.00
2022-10-11T18:18:57.287Z,102670.34
2022-10-11T18:21:28.672Z,102672.31
2022-10-11T18:24:02.835Z,102678.19
2022-10-11T18:26:30.662Z,102680.91
2022-10-11T18:28:58.462Z,102676.66
2022-10-11T18:31:28.053Z,102669.69
2022-10-11T18:33:55.454Z,102665.41
2022-10-11T18:36:24.667Z,102665.41
2022-10-11T18:38:57.862Z,102670.84
2022-10-11T18:41:30.633Z,102675.53
2022-10-11T18:43:58.251Z,102677.50
2022-10-11T18:46:25.186Z,102675.53
2022-10-11T18:48:53.550Z,102680.66
2022-10-11T18:51:25.580Z,102673.25
2022-10-11T18:53:52.543Z,102672.09
2022-10-11T18:56:20.733Z,102664.38
2022-10-11T18:58:48.619Z,102669.06
2022-10-11T19:01:23.807Z,102675.28
2022-10-11T19:03:56.462Z,102672.56
2022-10-11T19:06:27.550Z,102676.47
2022-10-11T19:08:56.420Z,102676.88
2022-10-11T19:11:25.206Z,102673.38
2022-10-11T19:13:59.565Z,102680.03
2022-10-11T19:16:29.331Z,102678.81
2022-10-11T19:18:56.825Z,102671.88
2022-10-11T19:21:23.505Z,102675.78
2022-10-11T19:23:50.591Z,102685.91
2022-10-11T19:26:21.901Z,102687.44
2022-10-11T19:28:54.610Z,102680.47
2022-10-11T19:31:21.017Z,102679.69
2022-10-11T19:33:49.525Z,102683.56
2022-10-11T19:36:16.340Z,102676.63
2022-10-11T19:38:45.840Z,102678.56
2022-10-11T19:41:13.436Z,102680.53
2022-10-11T19:43:39.946Z,102674.31
2022-10-11T19:46:09.587Z,102666.59
2022-10-11T19:48:39.555Z,102663.09
2022-10-11T19:51:08.640Z,102673.19
2022-10-11T19:53:36.006Z,102670.47
2022-10-11T19:56:05.083Z,102675.91
2022-10-11T19:58:31.683Z,102671.66
2022-10-11T20:01:12.191Z,102673.19
2022-10-11T20:03:38.944Z,102675.56
2022-10-11T20:06:07.583Z,102675.56
2022-10-11T20:08:35.448Z,102676.78
2022-10-11T20:11:07.166Z,102671.34
2022-10-11T20:13:35.126Z,102672.06
2022-10-11T20:16:10.922Z,102678.75
2022-10-11T20:18:38.489Z,102673.69
2022-10-11T20:21:12.108Z,102678.81
2022-10-11T20:26:21.120Z,102676.81
2022-10-11T20:28:52.389Z,102680.75
2022-10-11T20:31:33.308Z,102680.00
2022-10-11T20:34:02.210Z,102680.75
2022-10-11T20:36:30.131Z,102677.66
2022-10-11T20:38:57.972Z,102679.22
2022-10-11T20:41:27.526Z,102676.91
2022-10-11T20:43:56.813Z,102676.16
2022-10-11T20:46:25.352Z,102668.72
2022-10-11T20:49:01.970Z,102672.66
2022-10-11T20:51:30.299Z,102665.69
2022-10-11T20:53:57.261Z,102664.91
2022-10-11T20:56:23.799Z,102667.28
2022-10-11T20:58:52.613Z,102668.06
2022-10-11T21:01:21.973Z,102667.28
2022-10-11T21:03:48.545Z,102670.00
2022-10-11T21:06:14.985Z,102676.22
2022-10-11T21:08:43.918Z,102674.69
2022-10-11T21:11:11.049Z,102672.38
2022-10-11T21:13:38.105Z,102672.38
2022-10-11T21:16:15.309Z,102675.09
2022-10-11T21:18:44.876Z,102674.34
2022-10-11T21:21:13.734Z,102680.19
2022-10-11T21:23:41.276Z,102680.19
2022-10-11T21:26:13.725Z,102675.94
2022-10-11T21:28:41.193Z,102686.06
2022-10-11T21:31:10.130Z,102670.56
2022-10-11T21:33:37.105Z,102684.09
2022-10-11T21:36:08.634Z,102686.06
2022-10-11T21:38:35.936Z,102682.56
2022-10-11T21:41:10.393Z,102681.81
2022-10-11T21:43:38.309Z,102683.75
2022-10-11T21:46:10.862Z,102684.97
2022-10-11T21:48:37.433Z,102683.03
2022-10-11T21:51:04.257Z,102684.97
2022-10-11T21:53:30.778Z,102687.69
2022-10-11T21:55:58.488Z,102681.44
2022-10-11T21:58:24.970Z,102681.09
2022-10-11T22:00:52.258Z,102687.31
2022-10-11T22:03:19.204Z,102676.41
2022-10-11T22:05:46.923Z,102681.09
2022-10-11T22:08:14.141Z,102679.59
2022-10-11T22:10:45.020Z,102690.09
2022-10-11T22:13:11.977Z,102692.44
2022-10-11T22:15:39.508Z,102686.22
2022-10-11T22:18:05.963Z,102695.56
2022-10-11T22:20:33.138Z,102686.63
2022-10-11T22:22:59.775Z,102688.56
2022-10-11T22:25:26.291Z,102686.63
2022-10-11T22:27:52.692Z,102692.50
2022-10-11T22:30:19.099Z,102690.53
2022-10-11T22:32:45.536Z,102683.94
2022-10-11T22:35:11.920Z,102694.84
2022-10-11T22:37:38.453Z,102691.03
2022-10-11T22:40:05.895Z,102689.84
2022-10-11T22:42:32.326Z,102696.06
2022-10-11T22:44:58.755Z,102698.78
2022-10-11T22:47:25.628Z,102694.53
2022-10-11T22:49:51.982Z,102693.00
2022-10-11T22:52:18.414Z,102688.31
2022-10-11T22:54:44.850Z,102690.69
2022-10-11T22:57:11.282Z,102691.78
2022-10-11T22:59:37.695Z,102689.91
2022-10-11T23:02:04.223Z,102695.72
2022-10-11T23:04:30.667Z,102691.88
2022-10-11T23:07:01.211Z,102692.28
2022-10-11T23:09:31.666Z,102695.00
2022-10-11T23:11:59.485Z,102693.81
2022-10-11T23:14:25.882Z,102695.78
2022-10-11T23:16:52.466Z,102697.72
2022-10-11T23:19:19.052Z,102697.41
2022-10-11T23:21:45.461Z,102693.13
2022-10-11T23:24:11.926Z,102689.22
2022-10-11T23:26:38.311Z,102704.78
2022-10-11T23:29:04.753Z,102711.00
2022-10-11T23:31:31.150Z,102703.22
2022-10-11T23:33:57.880Z,102700.50
2022-10-11T23:36:25.915Z,102700.19
2022-10-11T23:38:57.665Z,102703.66
2022-10-11T23:41:26.464Z,102709.88
2022-10-11T23:43:53.426Z,102701.38
2022-10-11T23:46:20.186Z,102705.25
2022-10-11T23:48:46.667Z,102705.25
2022-10-11T23:51:13.501Z,102706.00
2022-10-11T23:53:40.207Z,102700.22
2022-10-11T23:56:07.324Z,102707.19
2022-10-11T23:58:33.875Z,102710.38
